ZPBHS SGAS-SGAS
Flight info
| Callsign | ZPBHS |
|---|---|
| Flight time | 0h 17m |
| Altitude | 3000 |
| Route | VUELO INSTRUCCION SECTOR LAGO |
| Aircraft | C172/L-VGD/A |
Departure
| Time | 2026-04-25 13:21 |
|---|---|
| Airport | Silvio Pettirossi International Airport (SGAS) |
Arrival
| Time | 2026-04-25 13:39 |
|---|---|
| Airport | Silvio Pettirossi International Airport (SGAS) |
| Time | Latitude | Longitude | Altitude | Speed | Heading |
|---|---|---|---|---|---|
| 2026-04-25 13:06 | -25.25259 | -57.51444 | 295 ft | 0 kts | 21° |
| 2026-04-25 13:09 | -25.25245 | -57.51443 | 295 ft | 3 kts | 348° |
| 2026-04-25 13:09 | -25.25225 | -57.51473 | 295 ft | 6 kts | 285° |
| 2026-04-25 13:09 | -25.25218 | -57.51532 | 295 ft | 8 kts | 275° |
| 2026-04-25 13:09 | -25.25204 | -57.51590 | 295 ft | 8 kts | 294° |
| 2026-04-25 13:10 | -25.25180 | -57.51653 | 295 ft | 8 kts | 291° |
| 2026-04-25 13:10 | -25.25157 | -57.51718 | 295 ft | 7 kts | 290° |
| 2026-04-25 13:10 | -25.25131 | -57.51724 | 295 ft | 2 kts | 20° |
| 2026-04-25 13:10 | -25.25110 | -57.51714 | 295 ft | 5 kts | 23° |
| 2026-04-25 13:11 | -25.25049 | -57.51686 | 295 ft | 13 kts | 26° |
| 2026-04-25 13:11 | -25.24935 | -57.51634 | 295 ft | 21 kts | 24° |
| 2026-04-25 13:11 | -25.24782 | -57.51582 | 295 ft | 21 kts | 337° |
| 2026-04-25 13:11 | -25.24674 | -57.51671 | 295 ft | 18 kts | 315° |
| 2026-04-25 13:12 | -25.24632 | -57.51794 | 295 ft | 15 kts | 282° |
| 2026-04-25 13:12 | -25.24673 | -57.51862 | 295 ft | 12 kts | 196° |
| 2026-04-25 13:12 | -25.24768 | -57.51883 | 295 ft | 15 kts | 190° |
| 2026-04-25 13:12 | -25.24847 | -57.51905 | 295 ft | 19 kts | 187° |
| 2026-04-25 13:13 | -25.25053 | -57.51952 | 295 ft | 25 kts | 187° |
| 2026-04-25 13:13 | -25.25238 | -57.51995 | 295 ft | 29 kts | 191° |
| 2026-04-25 13:13 | -25.25439 | -57.52056 | 295 ft | 25 kts | 198° |
| 2026-04-25 13:13 | -25.25477 | -57.52153 | 295 ft | 11 kts | 284° |
| 2026-04-25 13:14 | -25.25476 | -57.52161 | 295 ft | 0 kts | 277° |
| 2026-04-25 13:15 | -25.25476 | -57.52162 | 295 ft | 0 kts | 277° |
| 2026-04-25 13:15 | -25.25476 | -57.52161 | 295 ft | 0 kts | 277° |
| 2026-04-25 13:17 | -25.25476 | -57.52162 | 295 ft | 0 kts | 278° |
| 2026-04-25 13:17 | -25.25472 | -57.52182 | 295 ft | 0 kts | 285° |
| 2026-04-25 13:19 | -25.25466 | -57.52210 | 295 ft | 7 kts | 284° |
| 2026-04-25 13:19 | -25.25446 | -57.52252 | 295 ft | 11 kts | 321° |
| 2026-04-25 13:20 | -25.25363 | -57.52251 | 295 ft | 14 kts | 12° |
| 2026-04-25 13:20 | -25.25123 | -57.52194 | 295 ft | 56 kts | 15° |
| 2026-04-25 13:20 | -25.24713 | -57.52177 | 460 ft | 56 kts | 4° |
| 2026-04-25 13:20 | -25.24304 | -57.52142 | 581 ft | 58 kts | 19° |
| 2026-04-25 13:21 | -25.23874 | -57.52064 | 711 ft | 61 kts | 14° |
| 2026-04-25 13:21 | -25.23481 | -57.51875 | 891 ft | 55 kts | 40° |
| 2026-04-25 13:21 | -25.23192 | -57.51555 | 1011 ft | 60 kts | 53° |
| 2026-04-25 13:21 | -25.23101 | -57.51105 | 1141 ft | 64 kts | 94° |
| 2026-04-25 13:22 | -25.23329 | -57.50673 | 1299 ft | 67 kts | 129° |
| 2026-04-25 13:22 | -25.23726 | -57.50335 | 1409 ft | 75 kts | 142° |
| 2026-04-25 13:22 | -25.24212 | -57.50097 | 1543 ft | 81 kts | 159° |
| 2026-04-25 13:23 | -25.25306 | -57.49822 | 1831 ft | 82 kts | 166° |
| 2026-04-25 13:23 | -25.25889 | -57.49755 | 1924 ft | 90 kts | 173° |
| 2026-04-25 13:23 | -25.26433 | -57.49536 | 1986 ft | 93 kts | 134° |
| 2026-04-25 13:23 | -25.26753 | -57.49008 | 2198 ft | 77 kts | 98° |
| 2026-04-25 13:24 | -25.26844 | -57.48443 | 2303 ft | 79 kts | 90° |
| 2026-04-25 13:24 | -25.26891 | -57.47879 | 2448 ft | 79 kts | 85° |
| 2026-04-25 13:24 | -25.26998 | -57.47281 | 2600 ft | 80 kts | 96° |
| 2026-04-25 13:24 | -25.27134 | -57.46696 | 2723 ft | 81 kts | 95° |
| 2026-04-25 13:25 | -25.27251 | -57.46069 | 2855 ft | 80 kts | 92° |
| 2026-04-25 13:25 | -25.27369 | -57.45438 | 2955 ft | 84 kts | 95° |
| 2026-04-25 13:25 | -25.27479 | -57.44781 | 3055 ft | 88 kts | 91° |
| 2026-04-25 13:25 | -25.27550 | -57.44083 | 3094 ft | 93 kts | 91° |
| 2026-04-25 13:26 | -25.27645 | -57.43359 | 3100 ft | 96 kts | 95° |
| 2026-04-25 13:26 | -25.27751 | -57.42636 | 3126 ft | 98 kts | 96° |
| 2026-04-25 13:26 | -25.27888 | -57.41898 | 3155 ft | 97 kts | 101° |
| 2026-04-25 13:26 | -25.28069 | -57.41161 | 3163 ft | 100 kts | 103° |
| 2026-04-25 13:27 | -25.28281 | -57.40424 | 3188 ft | 101 kts | 105° |
| 2026-04-25 13:27 | -25.28525 | -57.39684 | 3213 ft | 102 kts | 107° |
| 2026-04-25 13:27 | -25.28834 | -57.38974 | 3225 ft | 105 kts | 114° |
| 2026-04-25 13:27 | -25.29208 | -57.38274 | 3257 ft | 104 kts | 120° |
| 2026-04-25 13:28 | -25.29644 | -57.37617 | 3242 ft | 108 kts | 123° |
| 2026-04-25 13:28 | -25.29966 | -57.37200 | 3262 ft | 108 kts | 129° |
| 2026-04-25 13:28 | -25.30691 | -57.36419 | 3295 ft | 107 kts | 136° |
| 2026-04-25 13:28 | -25.31290 | -57.35900 | 3300 ft | 109 kts | 141° |
| 2026-04-25 13:29 | -25.31913 | -57.35441 | 3335 ft | 108 kts | 147° |
| 2026-04-25 13:29 | -25.32584 | -57.35029 | 3331 ft | 111 kts | 153° |
| 2026-04-25 13:29 | -25.33358 | -57.34917 | 3307 ft | 116 kts | 186° |
| 2026-04-25 13:30 | -25.34402 | -57.35963 | 3330 ft | 103 kts | 273° |
| 2026-04-25 13:30 | -25.34194 | -57.36682 | 3360 ft | 96 kts | 304° |
| 2026-04-25 13:30 | -25.33785 | -57.37247 | 3376 ft | 94 kts | 319° |
| 2026-04-25 13:31 | -25.32789 | -57.38197 | 3315 ft | 95 kts | 325° |
| 2026-04-25 13:31 | -25.32258 | -57.38644 | 3137 ft | 96 kts | 330° |
| 2026-04-25 13:31 | -25.31679 | -57.39015 | 2996 ft | 95 kts | 334° |
| 2026-04-25 13:31 | -25.31135 | -57.39441 | 2813 ft | 99 kts | 322° |
| 2026-04-25 13:32 | -25.30607 | -57.39910 | 2672 ft | 97 kts | 327° |
| 2026-04-25 13:32 | -25.30056 | -57.40348 | 2546 ft | 95 kts | 330° |
| 2026-04-25 13:32 | -25.29507 | -57.40744 | 2402 ft | 96 kts | 332° |
| 2026-04-25 13:32 | -25.28938 | -57.41127 | 2294 ft | 93 kts | 332° |
| 2026-04-25 13:33 | -25.28365 | -57.41501 | 2132 ft | 97 kts | 333° |
| 2026-04-25 13:33 | -25.27809 | -57.41905 | 2025 ft | 94 kts | 333° |
| 2026-04-25 13:33 | -25.27241 | -57.42287 | 1894 ft | 95 kts | 335° |
| 2026-04-25 13:33 | -25.26860 | -57.42535 | 1828 ft | 93 kts | 336° |
| 2026-04-25 13:34 | -25.26102 | -57.43029 | 1649 ft | 95 kts | 336° |
| 2026-04-25 13:34 | -25.25521 | -57.43391 | 1508 ft | 97 kts | 334° |
| 2026-04-25 13:34 | -25.24959 | -57.43805 | 1396 ft | 96 kts | 329° |
| 2026-04-25 13:34 | -25.24431 | -57.44258 | 1277 ft | 98 kts | 328° |
| 2026-04-25 13:35 | -25.23884 | -57.44708 | 1161 ft | 97 kts | 329° |
| 2026-04-25 13:35 | -25.23341 | -57.45176 | 1043 ft | 99 kts | 321° |
| 2026-04-25 13:35 | -25.22904 | -57.45701 | 1025 ft | 98 kts | 316° |
| 2026-04-25 13:35 | -25.22500 | -57.46229 | 1144 ft | 75 kts | 314° |
| 2026-04-25 13:36 | -25.22176 | -57.46677 | 1155 ft | 72 kts | 315° |
| 2026-04-25 13:36 | -25.21849 | -57.47136 | 1112 ft | 77 kts | 309° |
| 2026-04-25 13:36 | -25.21555 | -57.47612 | 1121 ft | 73 kts | 308° |
| 2026-04-25 13:36 | -25.21320 | -57.48131 | 1105 ft | 75 kts | 301° |
| 2026-04-25 13:37 | -25.21074 | -57.48623 | 1126 ft | 68 kts | 311° |
| 2026-04-25 13:37 | -25.20818 | -57.49072 | 1121 ft | 74 kts | 292° |
| 2026-04-25 13:37 | -25.20742 | -57.49645 | 1102 ft | 76 kts | 265° |
| 2026-04-25 13:37 | -25.20944 | -57.50207 | 1035 ft | 79 kts | 241° |
| 2026-04-25 13:38 | -25.21239 | -57.50712 | 960 ft | 81 kts | 236° |
| 2026-04-25 13:38 | -25.21610 | -57.51117 | 945 ft | 70 kts | 221° |
| 2026-04-25 13:38 | -25.22062 | -57.51420 | 652 ft | 83 kts | 199° |
| 2026-04-25 13:38 | -25.22601 | -57.51584 | 427 ft | 71 kts | 182° |
| 2026-04-25 13:39 | -25.23066 | -57.51697 | 295 ft | 57 kts | 191° |
| 2026-04-25 13:39 | -25.23369 | -57.51762 | 295 ft | 34 kts | 186° |
| 2026-04-25 13:39 | -25.23751 | -57.51848 | 311 ft | 71 kts | 192° |
| 2026-04-25 13:39 | -25.24236 | -57.52002 | 431 ft | 75 kts | 194° |
| 2026-04-25 13:40 | -25.24750 | -57.52130 | 554 ft | 76 kts | 174° |
| 2026-04-25 13:40 | -25.25278 | -57.52158 | 703 ft | 73 kts | 167° |
| 2026-04-25 13:40 | -25.25801 | -57.52093 | 833 ft | 73 kts | 149° |
| 2026-04-25 13:40 | -25.26044 | -57.51645 | 930 ft | 69 kts | 91° |
| 2026-04-25 13:41 | -25.26037 | -57.51106 | 1051 ft | 72 kts | 73° |
| 2026-04-25 13:41 | -25.25793 | -57.50619 | 1169 ft | 76 kts | 35° |
| 2026-04-25 13:41 | -25.25310 | -57.50328 | 1273 ft | 82 kts | 29° |
| 2026-04-25 13:41 | -25.24771 | -57.50172 | 1379 ft | 89 kts | 8° |
| 2026-04-25 13:42 | -25.24158 | -57.50170 | 1511 ft | 89 kts | 2° |
| 2026-04-25 13:42 | -25.23545 | -57.50258 | 1427 ft | 91 kts | 358° |
| 2026-04-25 13:42 | -25.22893 | -57.50338 | 1252 ft | 91 kts | 0° |
| 2026-04-25 13:42 | -25.22282 | -57.50423 | 1067 ft | 85 kts | 359° |
| 2026-04-25 13:43 | -25.21695 | -57.50502 | 857 ft | 83 kts | 2° |
| 2026-04-25 13:43 | -25.21179 | -57.50596 | 758 ft | 69 kts | 351° |
| 2026-04-25 13:43 | -25.20724 | -57.50744 | 617 ft | 72 kts | 335° |
| 2026-04-25 13:43 | -25.20609 | -57.51231 | 544 ft | 72 kts | 242° |
| 2026-04-25 13:44 | -25.21014 | -57.51357 | 481 ft | 59 kts | 140° |
| 2026-04-25 13:44 | -25.21441 | -57.51304 | 445 ft | 66 kts | 178° |
| 2026-04-25 13:44 | -25.21899 | -57.51416 | 413 ft | 66 kts | 186° |
| 2026-04-25 13:44 | -25.22362 | -57.51526 | 364 ft | 68 kts | 178° |
| 2026-04-25 13:45 | -25.22829 | -57.51639 | 308 ft | 69 kts | 186° |
| 2026-04-25 13:45 | -25.23226 | -57.51725 | 295 ft | 58 kts | 188° |
| 2026-04-25 13:45 | -25.23706 | -57.51840 | 368 ft | 75 kts | 191° |
| 2026-04-25 13:45 | -25.24231 | -57.52006 | 511 ft | 76 kts | 188° |
| 2026-04-25 13:46 | -25.24753 | -57.52069 | 622 ft | 76 kts | 156° |
| 2026-04-25 13:46 | -25.25121 | -57.51725 | 771 ft | 64 kts | 106° |
| 2026-04-25 13:46 | -25.25143 | -57.51230 | 842 ft | 72 kts | 71° |
| 2026-04-25 13:46 | -25.24932 | -57.50694 | 951 ft | 79 kts | 60° |
| 2026-04-25 13:47 | -25.24600 | -57.50212 | 1065 ft | 82 kts | 46° |
| 2026-04-25 13:47 | -25.24028 | -57.50017 | 1145 ft | 92 kts | 360° |
| 2026-04-25 13:47 | -25.23399 | -57.50152 | 1280 ft | 91 kts | 354° |
| 2026-04-25 13:47 | -25.22782 | -57.50273 | 1421 ft | 88 kts | 358° |
| 2026-04-25 13:48 | -25.22168 | -57.50343 | 1394 ft | 90 kts | 360° |
| 2026-04-25 13:48 | -25.21543 | -57.50394 | 1371 ft | 92 kts | 5° |
| 2026-04-25 13:48 | -25.20912 | -57.50352 | 1361 ft | 89 kts | 13° |
| 2026-04-25 13:48 | -25.20336 | -57.50468 | 1203 ft | 96 kts | 310° |
| 2026-04-25 13:49 | -25.20438 | -57.51160 | 1119 ft | 89 kts | 216° |
| 2026-04-25 13:49 | -25.21013 | -57.51305 | 993 ft | 83 kts | 182° |
| 2026-04-25 13:49 | -25.21616 | -57.51371 | 729 ft | 97 kts | 182° |
| 2026-04-25 13:49 | -25.22277 | -57.51487 | 451 ft | 99 kts | 189° |
| 2026-04-25 13:50 | -25.22907 | -57.51649 | 306 ft | 79 kts | 191° |
| 2026-04-25 13:50 | -25.23361 | -57.51751 | 295 ft | 56 kts | 192° |
| 2026-04-25 13:50 | -25.23681 | -57.51840 | 295 ft | 31 kts | 193° |
| 2026-04-25 13:50 | -25.23717 | -57.51852 | 295 ft | 1 kts | 196° |
| 2026-04-25 13:51 | -25.23816 | -57.51871 | 295 ft | 26 kts | 183° |
| 2026-04-25 13:51 | -25.24062 | -57.51925 | 295 ft | 44 kts | 192° |
| 2026-04-25 13:51 | -25.24263 | -57.51934 | 295 ft | 17 kts | 108° |
| 2026-04-25 13:51 | -25.24283 | -57.51831 | 295 ft | 12 kts | 98° |
| 2026-04-25 13:52 | -25.24343 | -57.51780 | 295 ft | 13 kts | 188° |
| 2026-04-25 13:52 | -25.24443 | -57.51807 | 295 ft | 16 kts | 194° |
| 2026-04-25 13:52 | -25.24567 | -57.51837 | 295 ft | 20 kts | 193° |
| 2026-04-25 13:52 | -25.24684 | -57.51865 | 295 ft | 16 kts | 193° |
| 2026-04-25 13:53 | -25.24797 | -57.51895 | 295 ft | 17 kts | 189° |
| 2026-04-25 13:53 | -25.24913 | -57.51923 | 295 ft | 17 kts | 207° |
| 2026-04-25 13:53 | -25.25015 | -57.51954 | 295 ft | 9 kts | 204° |
| 2026-04-25 13:53 | -25.25009 | -57.51941 | 295 ft | 7 kts | 4° |
| 2026-04-25 13:54 | -25.24944 | -57.51929 | 295 ft | 11 kts | 10° |
| 2026-04-25 13:54 | -25.24847 | -57.51908 | 295 ft | 16 kts | 19° |
| 2026-04-25 13:54 | -25.24729 | -57.51870 | 295 ft | 19 kts | 9° |
| 2026-04-25 13:54 | -25.24624 | -57.51835 | 295 ft | 9 kts | 102° |
| 2026-04-25 13:55 | -25.24637 | -57.51776 | 295 ft | 7 kts | 96° |
| 2026-04-25 13:55 | -25.24650 | -57.51702 | 295 ft | 11 kts | 120° |
| 2026-04-25 13:55 | -25.24686 | -57.51658 | 295 ft | 7 kts | 141° |
| 2026-04-25 13:55 | -25.24740 | -57.51613 | 295 ft | 13 kts | 133° |
| 2026-04-25 13:56 | -25.24810 | -57.51585 | 295 ft | 3 kts | 179° |
| 2026-04-25 13:56 | -25.24838 | -57.51590 | 295 ft | 5 kts | 200° |
| 2026-04-25 13:56 | -25.24887 | -57.51612 | 295 ft | 9 kts | 203° |
| 2026-04-25 13:56 | -25.24968 | -57.51651 | 295 ft | 16 kts | 200° |
| 2026-04-25 13:57 | -25.25095 | -57.51706 | 295 ft | 22 kts | 201° |
| 2026-04-25 13:57 | -25.25151 | -57.51723 | 295 ft | 7 kts | 142° |
| 2026-04-25 13:57 | -25.25190 | -57.51623 | 295 ft | 18 kts | 109° |
| 2026-04-25 13:57 | -25.25226 | -57.51472 | 295 ft | 15 kts | 109° |
| 2026-04-25 13:58 | -25.25274 | -57.51439 | 295 ft | 0 kts | 189° |